Time;durP1;ratioP1;P1;durP2;ratioP2;P2;SDS_P1;SDS_P2;PMS_P1;PMS_P2;Temp;Humidity;BMP_temperature;BMP_pressure;BME280_temperature;BME280_humidity;BME280_pressure;Samples;Min_cycle;Max_cycle;Signal;HPM_P1;HPM_P2
2023/01/18 00:00:36;;;;;;;9.55;4.85;;;;;;;;;;5040700;28;20087;-80
2023/01/18 00:03:02;;;;;;;10.70;4.90;;;;;;;;;;5042685;28;20021;-83
2023/01/18 00:05:27;;;;;;;8.93;4.70;;;;;;;;;;5023726;28;20022;-80
2023/01/18 00:07:53;;;;;;;10.68;5.22;;;;;;;;;;5041091;28;20383;-79
2023/01/18 00:10:18;;;;;;;10.07;5.32;;;;;;;;;;5023489;28;20021;-80
2023/01/18 00:12:44;;;;;;;10.32;5.15;;;;;;;;;;5041977;28;20057;-81
2023/01/18 00:15:09;;;;;;;11.52;5.38;;;;;;;;;;5041727;28;20036;-81
2023/01/18 00:17:46;;;;;;;8.73;4.80;;;;;;;;;;5023542;28;20056;-81
2023/01/18 00:20:14;;;;;;;11.75;5.32;;;;;;;;;;5023665;28;20025;-80
2023/01/18 00:22:40;;;;;;;8.02;4.80;;;;;;;;;;5040871;28;20029;-81
2023/01/18 00:25:05;;;;;;;13.48;5.40;;;;;;;;;;5024140;28;20029;-82
2023/01/18 00:27:30;;;;;;;9.88;5.25;;;;;;;;;;5041433;28;20029;-81
2023/01/18 00:29:58;;;;;;;8.60;4.38;;;;;;;;;;5041137;28;20049;-81
2023/01/18 00:32:23;;;;;;;11.45;4.88;;;;;;;;;;5041514;28;20040;-81
2023/01/18 00:34:49;;;;;;;10.68;4.88;;;;;;;;;;5023311;28;20021;-80
2023/01/18 00:37:14;;;;;;;10.85;4.57;;;;;;;;;;5022616;28;20052;-81
2023/01/18 00:39:39;;;;;;;10.25;4.90;;;;;;;;;;5023761;28;20081;-81
2023/01/18 00:44:48;;;;;;;10.07;4.65;;;;;;;;;;5046074;28;20040;-80
2023/01/18 00:47:14;;;;;;;10.25;4.28;;;;;;;;;;5045261;28;20033;-82
2023/01/18 00:49:39;;;;;;;10.75;4.35;;;;;;;;;;5044027;28;20025;-81
2023/01/18 00:52:04;;;;;;;7.88;4.50;;;;;;;;;;5044140;28;20035;-81
2023/01/18 00:54:29;;;;;;;7.82;3.90;;;;;;;;;;5044453;28;20036;-82
2023/01/18 00:56:55;;;;;;;8.75;4.25;;;;;;;;;;5045069;28;20038;-81
2023/01/18 00:59:20;;;;;;;9.60;4.35;;;;;;;;;;5044773;28;20086;-82
2023/01/18 01:01:45;;;;;;;9.48;3.85;;;;;;;;;;5045103;28;20048;-81
2023/01/18 01:06:54;;;;;;;10.18;4.50;;;;;;;;;;5043475;28;20040;-82
2023/01/18 01:09:23;;;;;;;8.48;4.65;;;;;;;;;;5043923;28;20038;-80
2023/01/18 01:28:20;;;;;;;8.27;4.47;;;;;;;;;;5046434;28;20112;-80
2023/01/18 01:30:45;;;;;;;9.20;4.55;;;;;;;;;;5027300;28;20056;-81
2023/01/18 01:33:10;;;;;;;7.45;4.32;;;;;;;;;;5045736;28;20014;-82
2023/01/18 01:35:36;;;;;;;6.05;4.05;;;;;;;;;;5055826;28;20014;-80
2023/01/18 01:38:01;;;;;;;7.30;4.15;;;;;;;;;;5057122;28;20029;-80
2023/01/18 01:40:26;;;;;;;8.65;4.97;;;;;;;;;;5057465;28;20010;-81
2023/01/18 01:42:51;;;;;;;9.32;4.25;;;;;;;;;;5039865;28;20018;-81
2023/01/18 01:45:18;;;;;;;10.02;4.53;;;;;;;;;;5057555;28;20013;-81
2023/01/18 01:47:45;;;;;;;10.43;4.82;;;;;;;;;;5057214;28;20021;-81
2023/01/18 01:50:40;;;;;;;9.20;4.80;;;;;;;;;;5059660;28;20037;-81
2023/01/18 01:53:07;;;;;;;8.43;4.10;;;;;;;;;;5041694;28;20048;-81
2023/01/18 01:55:36;;;;;;;8.52;4.20;;;;;;;;;;5056885;28;20021;-81
2023/01/18 01:58:09;;;;;;;8.15;3.97;;;;;;;;;;5039824;28;20040;-81
2023/01/18 02:00:35;;;;;;;10.52;4.47;;;;;;;;;;5058170;28;20029;-81
2023/01/18 02:03:04;;;;;;;9.90;4.60;;;;;;;;;;5058009;28;20056;-80
2023/01/18 02:05:32;;;;;;;8.45;4.32;;;;;;;;;;5058072;28;20032;-81
2023/01/18 02:07:59;;;;;;;10.52;4.65;;;;;;;;;;5057949;28;20033;-81
2023/01/18 02:10:24;;;;;;;8.95;4.70;;;;;;;;;;5058117;28;20036;-81
2023/01/18 02:12:52;;;;;;;8.27;4.25;;;;;;;;;;5058054;28;20092;-80
2023/01/18 02:15:20;;;;;;;9.10;4.43;;;;;;;;;;5056285;28;20009;-82
2023/01/18 02:17:59;;;;;;;8.30;4.22;;;;;;;;;;5057299;28;20021;-82
2023/01/18 02:21:00;;;;;;;8.77;4.57;;;;;;;;;;5040993;28;20029;-82
2023/01/18 02:23:34;;;;;;;7.13;4.07;;;;;;;;;;5057832;28;20044;-81
2023/01/18 02:26:16;;;;;;;8.52;4.25;;;;;;;;;;5058274;28;20069;-81
2023/01/18 02:28:47;;;;;;;7.95;4.20;;;;;;;;;;5058715;28;20073;-79
2023/01/18 02:31:17;;;;;;;8.38;4.35;;;;;;;;;;5042858;28;20013;-80
2023/01/18 02:33:51;;;;;;;8.30;4.05;;;;;;;;;;5045958;28;20021;-81
2023/01/18 02:36:30;;;;;;;10.93;4.15;;;;;;;;;;5040380;28;20443;-82
2023/01/18 02:39:04;;;;;;;10.75;5.00;;;;;;;;;;5040556;28;20079;-80
2023/01/18 02:47:24;;;;;;;10.30;4.70;;;;;;;;;;5044291;28;20055;-81
2023/01/18 02:49:49;;;;;;;8.02;4.18;;;;;;;;;;5043019;28;20444;-80
2023/01/18 02:52:41;;;;;;;8.90;4.43;;;;;;;;;;5041802;28;20116;-81
2023/01/18 02:55:13;;;;;;;7.75;4.38;;;;;;;;;;5019842;28;20048;-81
2023/01/18 02:57:39;;;;;;;7.70;4.20;;;;;;;;;;5038268;28;20036;-81
2023/01/18 03:00:07;;;;;;;9.10;4.32;;;;;;;;;;5038882;28;20022;-81
2023/01/18 03:02:33;;;;;;;9.18;4.70;;;;;;;;;;5037422;28;20026;-79
2023/01/18 03:04:59;;;;;;;10.00;4.22;;;;;;;;;;5038040;28;20024;-80
2023/01/18 03:07:38;;;;;;;10.23;4.90;;;;;;;;;;5036986;28;20075;-80
2023/01/18 03:10:07;;;;;;;8.43;4.45;;;;;;;;;;5038809;28;20064;-80
2023/01/18 03:12:45;;;;;;;7.75;4.53;;;;;;;;;;5039215;28;20084;-81
2023/01/18 03:15:20;;;;;;;11.10;5.30;;;;;;;;;;5039970;28;20124;-80
2023/01/18 03:17:51;;;;;;;10.68;4.38;;;;;;;;;;5039658;28;20036;-80
2023/01/18 03:20:24;;;;;;;9.35;4.75;;;;;;;;;;5040400;28;20026;-81
2023/01/18 03:26:13;;;;;;;7.45;4.15;;;;;;;;;;5018346;28;20033;-80
2023/01/18 03:34:50;;;;;;;8.80;4.25;;;;;;;;;;5038906;28;20064;-81
2023/01/18 03:37:20;;;;;;;8.00;4.35;;;;;;;;;;5024033;28;20069;-80
2023/01/18 03:39:52;;;;;;;7.25;4.05;;;;;;;;;;5024938;28;20497;-82
2023/01/18 03:42:24;;;;;;;8.88;4.63;;;;;;;;;;5025032;28;20035;-80
2023/01/18 03:45:09;;;;;;;10.07;4.90;;;;;;;;;;5043429;28;20029;-80
2023/01/18 03:47:35;;;;;;;9.18;4.57;;;;;;;;;;5043328;28;20063;-80
2023/01/18 03:50:00;;;;;;;8.98;4.97;;;;;;;;;;5044361;28;20029;-81
2023/01/18 03:52:36;;;;;;;7.45;4.15;;;;;;;;;;5043780;28;20416;-80
2023/01/18 03:55:17;;;;;;;11.00;5.47;;;;;;;;;;5044972;28;20088;-80
2023/01/18 03:57:54;;;;;;;8.68;4.18;;;;;;;;;;5044179;28;20029;-81
2023/01/18 04:00:20;;;;;;;8.02;4.63;;;;;;;;;;5025725;28;20317;-81
2023/01/18 04:02:47;;;;;;;8.70;4.60;;;;;;;;;;5043004;28;20045;-80
2023/01/18 04:05:13;;;;;;;9.80;4.22;;;;;;;;;;5042729;28;20045;-80
2023/01/18 04:07:38;;;;;;;9.50;4.63;;;;;;;;;;5041620;28;20025;-81
2023/01/18 04:10:04;;;;;;;12.52;5.38;;;;;;;;;;5041041;28;20029;-80
2023/01/18 04:12:30;;;;;;;8.77;4.93;;;;;;;;;;5041210;28;20029;-80
2023/01/18 04:14:55;;;;;;;7.85;4.82;;;;;;;;;;5040982;28;20512;-81
2023/01/18 04:17:21;;;;;;;7.72;4.70;;;;;;;;;;5042068;28;20029;-80
2023/01/18 04:19:46;;;;;;;10.85;4.88;;;;;;;;;;5044984;28;20481;-80
2023/01/18 04:22:11;;;;;;;13.27;5.50;;;;;;;;;;5028071;28;20032;-80
2023/01/18 04:24:36;;;;;;;10.77;5.57;;;;;;;;;;5045532;28;20033;-81
2023/01/18 04:27:02;;;;;;;14.05;5.55;;;;;;;;;;5044752;28;20393;-81
2023/01/18 04:29:28;;;;;;;10.63;5.38;;;;;;;;;;5044522;28;20056;-80
2023/01/18 04:31:53;;;;;;;10.00;5.38;;;;;;;;;;5027827;28;20029;-79
2023/01/18 04:34:21;;;;;;;9.45;5.35;;;;;;;;;;5027166;28;20075;-81
2023/01/18 04:36:46;;;;;;;11.88;5.53;;;;;;;;;;5027303;28;20036;-81
2023/01/18 04:39:12;;;;;;;11.07;5.38;;;;;;;;;;5044484;28;20021;-81
2023/01/18 04:41:37;;;;;;;10.80;5.22;;;;;;;;;;5043808;28;20044;-80
2023/01/18 04:44:08;;;;;;;12.50;5.63;;;;;;;;;;5044672;28;20483;-80
2023/01/18 04:46:34;;;;;;;14.65;5.55;;;;;;;;;;5043537;28;20025;-81
2023/01/18 04:48:59;;;;;;;9.90;4.95;;;;;;;;;;5043580;28;20242;-81
2023/01/18 04:51:26;;;;;;;8.55;5.28;;;;;;;;;;5044267;28;20018;-81
2023/01/18 04:53:51;;;;;;;9.85;5.38;;;;;;;;;;5044576;28;20025;-81
2023/01/18 04:56:17;;;;;;;10.95;5.63;;;;;;;;;;5044214;28;20368;-82
2023/01/18 04:58:42;;;;;;;12.32;5.30;;;;;;;;;;5044366;28;20041;-81
2023/01/18 05:01:11;;;;;;;10.10;5.97;;;;;;;;;;5045108;28;20021;-81
2023/01/18 05:03:37;;;;;;;10.52;5.63;;;;;;;;;;5044358;28;20394;-80
2023/01/18 05:06:04;;;;;;;14.07;6.45;;;;;;;;;;5043931;28;20048;-81
2023/01/18 05:08:30;;;;;;;8.90;5.40;;;;;;;;;;5045377;28;20089;-81
2023/01/18 05:11:06;;;;;;;12.20;5.68;;;;;;;;;;5029550;28;20052;-81
2023/01/18 05:13:31;;;;;;;11.05;5.68;;;;;;;;;;5047637;28;20028;-82
2023/01/18 05:15:58;;;;;;;12.57;6.07;;;;;;;;;;5045894;28;20104;-82
2023/01/18 05:18:23;;;;;;;9.60;5.18;;;;;;;;;;5044249;28;20033;-82
2023/01/18 05:20:48;;;;;;;12.13;6.47;;;;;;;;;;5043271;28;20025;-82
2023/01/18 05:23:14;;;;;;;16.27;7.13;;;;;;;;;;5043580;28;20033;-81
2023/01/18 05:25:39;;;;;;;15.63;7.53;;;;;;;;;;5044596;28;20075;-80
2023/01/18 05:28:06;;;;;;;17.67;8.50;;;;;;;;;;5043175;28;20032;-80
2023/01/18 05:30:32;;;;;;;15.68;8.02;;;;;;;;;;5024352;28;20060;-83
2023/01/18 05:32:57;;;;;;;11.75;6.13;;;;;;;;;;5023908;28;20018;-81
2023/01/18 05:35:22;;;;;;;11.93;7.13;;;;;;;;;;5042380;28;20033;-83
2023/01/18 05:37:48;;;;;;;16.50;7.88;;;;;;;;;;5043957;28;20036;-81
2023/01/18 05:40:13;;;;;;;16.58;8.05;;;;;;;;;;5024826;28;20021;-82
2023/01/18 05:42:39;;;;;;;15.38;7.00;;;;;;;;;;5022980;28;20021;-81
2023/01/18 05:45:05;;;;;;;16.83;6.88;;;;;;;;;;5040022;28;20107;-81
2023/01/18 05:47:30;;;;;;;14.30;6.88;;;;;;;;;;5021791;28;20401;-81
2023/01/18 05:49:56;;;;;;;13.68;7.38;;;;;;;;;;5021891;28;20063;-81
2023/01/18 05:52:21;;;;;;;14.93;6.82;;;;;;;;;;5022090;28;20064;-83
2023/01/18 05:54:47;;;;;;;12.27;6.80;;;;;;;;;;5039636;28;20063;-82
2023/01/18 05:57:12;;;;;;;16.00;7.20;;;;;;;;;;5039470;28;20484;-82
2023/01/18 05:59:37;;;;;;;16.98;7.90;;;;;;;;;;5039186;28;20076;-80
2023/01/18 06:02:03;;;;;;;13.57;7.35;;;;;;;;;;5020909;28;20608;-81
2023/01/18 06:04:28;;;;;;;15.98;7.93;;;;;;;;;;5021305;28;20025;-80
2023/01/18 06:06:54;;;;;;;15.77;7.88;;;;;;;;;;5021459;28;20184;-82
2023/01/18 06:09:19;;;;;;;16.48;7.47;;;;;;;;;;5039065;28;20049;-81
2023/01/18 06:11:44;;;;;;;17.02;8.77;;;;;;;;;;5039835;28;20041;-81
2023/01/18 06:14:09;;;;;;;12.82;7.38;;;;;;;;;;5038388;28;20037;-80
2023/01/18 06:16:34;;;;;;;12.40;7.70;;;;;;;;;;5039177;28;20025;-81
2023/01/18 06:19:00;;;;;;;13.15;7.55;;;;;;;;;;5021073;28;20021;-80
2023/01/18 06:21:25;;;;;;;18.58;8.02;;;;;;;;;;5019920;28;20547;-81
2023/01/18 06:23:50;;;;;;;15.85;8.30;;;;;;;;;;5038534;28;20462;-81
2023/01/18 06:26:15;;;;;;;12.88;7.22;;;;;;;;;;5020714;28;20544;-81
2023/01/18 06:28:40;;;;;;;16.92;7.22;;;;;;;;;;5038492;28;20064;-82
2023/01/18 06:31:07;;;;;;;13.07;6.88;;;;;;;;;;5038868;28;20029;-80
2023/01/18 06:33:32;;;;;;;11.07;6.32;;;;;;;;;;5039084;28;20025;-80
2023/01/18 06:36:00;;;;;;;15.32;7.30;;;;;;;;;;5038289;28;20501;-81
2023/01/18 06:38:25;;;;;;;13.35;7.22;;;;;;;;;;5022259;28;20037;-81
2023/01/18 06:40:50;;;;;;;13.65;7.38;;;;;;;;;;5022205;28;20025;-80
2023/01/18 06:43:15;;;;;;;14.77;7.78;;;;;;;;;;5038996;28;20583;-80
2023/01/18 06:45:44;;;;;;;11.70;6.95;;;;;;;;;;5038459;28;20470;-81
2023/01/18 06:48:10;;;;;;;14.80;7.25;;;;;;;;;;5038417;28;20560;-82
2023/01/18 06:50:35;;;;;;;13.43;7.68;;;;;;;;;;5037857;28;20037;-80
2023/01/18 06:53:00;;;;;;;12.30;6.97;;;;;;;;;;5020209;28;20017;-81
2023/01/18 06:55:25;;;;;;;12.85;6.93;;;;;;;;;;5037767;28;20021;-82
2023/01/18 06:57:51;;;;;;;13.93;6.65;;;;;;;;;;5037256;28;20406;-82
2023/01/18 07:00:17;;;;;;;13.88;7.35;;;;;;;;;;5021388;28;20478;-81
2023/01/18 07:02:42;;;;;;;12.63;7.15;;;;;;;;;;5037430;28;20501;-83
2023/01/18 07:05:08;;;;;;;17.17;7.43;;;;;;;;;;5037630;28;20048;-81
2023/01/18 07:07:33;;;;;;;14.18;7.95;;;;;;;;;;5037686;28;20026;-81
2023/01/18 07:09:58;;;;;;;11.32;7.15;;;;;;;;;;5019673;28;20017;-82
2023/01/18 07:12:23;;;;;;;12.05;7.18;;;;;;;;;;5037548;28;20029;-83
2023/01/18 07:14:49;;;;;;;15.45;7.65;;;;;;;;;;5037770;28;20021;-81
2023/01/18 07:17:14;;;;;;;13.85;7.60;;;;;;;;;;5019417;28;20381;-82
2023/01/18 07:19:39;;;;;;;12.60;7.45;;;;;;;;;;5037469;28;20029;-82
2023/01/18 07:22:05;;;;;;;12.30;6.38;;;;;;;;;;5037361;28;20104;-81
2023/01/18 07:24:30;;;;;;;15.68;7.47;;;;;;;;;;5019821;28;20025;-82
2023/01/18 07:26:59;;;;;;;11.65;6.90;;;;;;;;;;5021828;28;20044;-81
2023/01/18 07:29:25;;;;;;;13.35;6.72;;;;;;;;;;5038769;28;20047;-81
2023/01/18 07:31:50;;;;;;;12.43;6.95;;;;;;;;;;5020410;28;20037;-81
2023/01/18 07:34:15;;;;;;;15.25;7.18;;;;;;;;;;5037380;28;20443;-81
2023/01/18 07:36:41;;;;;;;15.02;7.35;;;;;;;;;;5037970;28;20550;-81
2023/01/18 07:39:07;;;;;;;16.17;7.15;;;;;;;;;;5038529;28;20063;-81
2023/01/18 07:41:33;;;;;;;12.45;7.50;;;;;;;;;;5038490;28;20025;-80
2023/01/18 07:43:58;;;;;;;13.02;7.60;;;;;;;;;;5037544;28;20024;-80
2023/01/18 07:46:24;;;;;;;13.13;6.60;;;;;;;;;;5036912;28;20030;-81
2023/01/18 07:48:51;;;;;;;14.75;7.40;;;;;;;;;;5037041;28;20133;-81
2023/01/18 07:51:17;;;;;;;16.75;7.50;;;;;;;;;;5018815;28;20092;-80
2023/01/18 07:53:43;;;;;;;12.32;6.93;;;;;;;;;;5041615;28;20021;-80
2023/01/18 07:56:12;;;;;;;15.32;7.18;;;;;;;;;;5043110;28;20504;-82
2023/01/18 07:58:38;;;;;;;10.38;6.20;;;;;;;;;;5043085;28;20033;-83
2023/01/18 08:01:06;;;;;;;12.43;6.10;;;;;;;;;;5043336;28;20032;-80
2023/01/18 08:03:32;;;;;;;9.13;5.82;;;;;;;;;;5043493;28;20105;-81
2023/01/18 08:05:59;;;;;;;15.90;7.47;;;;;;;;;;5043628;28;20061;-80
2023/01/18 08:08:26;;;;;;;22.38;8.77;;;;;;;;;;5043290;28;20045;-79
2023/01/18 08:10:57;;;;;;;23.73;7.47;;;;;;;;;;5025829;28;20046;-81
2023/01/18 08:13:24;;;;;;;13.15;7.18;;;;;;;;;;5025852;28;20022;-81
2023/01/18 08:15:49;;;;;;;11.65;6.05;;;;;;;;;;5043372;28;20346;-81
2023/01/18 08:18:14;;;;;;;14.85;6.63;;;;;;;;;;5043555;28;20096;-81
2023/01/18 08:20:47;;;;;;;14.77;6.68;;;;;;;;;;5043767;28;20033;-79
2023/01/18 08:23:14;;;;;;;14.73;7.43;;;;;;;;;;5025153;28;20076;-80
2023/01/18 08:25:39;;;;;;;15.90;7.43;;;;;;;;;;5025703;28;20104;-81
2023/01/18 08:28:05;;;;;;;14.45;7.85;;;;;;;;;;5043231;28;20061;-81
2023/01/18 08:30:33;;;;;;;15.27;6.95;;;;;;;;;;5043503;28;20033;-82
2023/01/18 08:33:00;;;;;;;13.68;7.75;;;;;;;;;;5044287;28;20049;-80
2023/01/18 08:35:27;;;;;;;13.40;7.35;;;;;;;;;;5025181;28;20047;-80
2023/01/18 08:37:53;;;;;;;15.63;8.10;;;;;;;;;;5043416;28;20072;-81
2023/01/18 08:40:19;;;;;;;18.63;8.38;;;;;;;;;;5043978;28;20048;-80
2023/01/18 08:42:45;;;;;;;14.10;7.78;;;;;;;;;;5026981;28;20025;-82
2023/01/18 08:45:11;;;;;;;14.25;7.78;;;;;;;;;;5043924;28;20048;-80
2023/01/18 08:47:36;;;;;;;16.35;7.60;;;;;;;;;;5025321;28;20056;-79
2023/01/18 08:50:02;;;;;;;14.57;7.25;;;;;;;;;;5043228;28;20429;-81
2023/01/18 08:52:27;;;;;;;14.25;7.22;;;;;;;;;;5044349;28;20437;-80
2023/01/18 08:54:52;;;;;;;13.50;7.05;;;;;;;;;;5026029;28;20436;-80
2023/01/18 08:57:17;;;;;;;13.73;7.45;;;;;;;;;;5043888;28;20030;-81
2023/01/18 08:59:43;;;;;;;15.45;6.80;;;;;;;;;;5043012;28;20032;-81
2023/01/18 09:02:10;;;;;;;18.13;7.85;;;;;;;;;;5044255;28;20025;-82
2023/01/18 09:04:35;;;;;;;14.48;7.57;;;;;;;;;;5007646;28;20061;-80
2023/01/18 09:07:00;;;;;;;14.02;7.32;;;;;;;;;;5040270;28;20021;-81
2023/01/18 09:09:25;;;;;;;16.38;7.53;;;;;;;;;;5040778;28;20101;-81
2023/01/18 09:11:51;;;;;;;14.32;7.35;;;;;;;;;;5040503;28;20026;-80
2023/01/18 09:14:17;;;;;;;16.58;7.35;;;;;;;;;;5040989;28;20100;-79
2023/01/18 09:16:42;;;;;;;14.75;7.75;;;;;;;;;;5040503;28;20037;-80
2023/01/18 09:19:07;;;;;;;15.63;7.97;;;;;;;;;;5022788;28;20441;-80
2023/01/18 09:21:33;;;;;;;15.13;7.82;;;;;;;;;;5039408;28;20076;-80
2023/01/18 09:23:58;;;;;;;14.18;7.15;;;;;;;;;;5040817;28;20097;-80
2023/01/18 09:26:29;;;;;;;16.98;7.95;;;;;;;;;;5020388;28;20025;-78
2023/01/18 09:28:55;;;;;;;12.43;7.40;;;;;;;;;;5037189;28;20056;-78
2023/01/18 09:31:23;;;;;;;11.07;7.10;;;;;;;;;;5037636;28;20131;-78
2023/01/18 09:33:48;;;;;;;12.98;6.30;;;;;;;;;;5038205;28;20022;-78
2023/01/18 09:36:14;;;;;;;14.32;7.43;;;;;;;;;;5039838;28;20060;-82
2023/01/18 09:38:42;;;;;;;14.30;7.47;;;;;;;;;;5040866;28;20474;-83
2023/01/18 09:41:35;;;;;;;13.38;7.05;;;;;;;;;;5021491;28;20030;-82
2023/01/18 09:44:30;;;;;;;15.05;7.03;;;;;;;;;;5019100;28;20076;-82
2023/01/18 09:47:14;;;;;;;16.38;8.10;;;;;;;;;;5039507;28;20026;-82
2023/01/18 09:49:50;;;;;;;13.45;7.78;;;;;;;;;;5039633;28;20067;-80
2023/01/18 09:52:28;;;;;;;14.15;7.03;;;;;;;;;;5021184;28;20101;-81
2023/01/18 09:54:56;;;;;;;12.10;7.28;;;;;;;;;;5038979;28;20424;-81
2023/01/18 09:57:58;;;;;;;15.27;7.60;;;;;;;;;;5021168;28;20478;-80
2023/01/18 10:00:27;;;;;;;16.52;7.95;;;;;;;;;;5038797;28;20021;-80
2023/01/18 10:02:59;;;;;;;17.17;7.60;;;;;;;;;;5039203;28;20131;-80
2023/01/18 10:05:33;;;;;;;14.88;7.57;;;;;;;;;;5020585;28;20025;-79
2023/01/18 10:08:12;;;;;;;17.58;8.38;;;;;;;;;;5039278;28;20021;-81
2023/01/18 10:10:43;;;;;;;15.00;8.25;;;;;;;;;;5038688;28;20548;-80
2023/01/18 10:13:36;;;;;;;14.15;7.68;;;;;;;;;;5038753;28;20466;-80
2023/01/18 10:16:02;;;;;;;16.52;7.88;;;;;;;;;;5038231;28;20025;-80
2023/01/18 10:18:27;;;;;;;15.85;7.53;;;;;;;;;;5038210;28;20076;-79
2023/01/18 10:21:00;;;;;;;15.88;8.00;;;;;;;;;;5038326;28;20049;-80
2023/01/18 10:23:30;;;;;;;15.15;7.22;;;;;;;;;;5038368;28;20021;-83
2023/01/18 10:26:02;;;;;;;16.23;7.95;;;;;;;;;;5037872;28;20486;-80
2023/01/18 10:28:50;;;;;;;14.70;8.02;;;;;;;;;;5038275;28;20030;-80
2023/01/18 10:31:38;;;;;;;11.57;6.78;;;;;;;;;;5038491;28;20057;-81
2023/01/18 10:34:16;;;;;;;13.82;6.88;;;;;;;;;;5038056;28;20037;-82
2023/01/18 10:36:44;;;;;;;11.20;5.93;;;;;;;;;;5020277;28;20025;-79
2023/01/18 10:39:34;;;;;;;12.20;7.03;;;;;;;;;;5037848;28;20504;-80
2023/01/18 10:42:01;;;;;;;10.07;6.63;;;;;;;;;;5037887;28;20052;-81
2023/01/18 10:44:27;;;;;;;11.13;6.85;;;;;;;;;;5037608;28;20120;-78
2023/01/18 10:46:55;;;;;;;12.05;7.13;;;;;;;;;;5037480;28;20478;-81
2023/01/18 10:49:55;;;;;;;12.93;7.10;;;;;;;;;;5038128;28;20378;-81
2023/01/18 10:52:29;;;;;;;11.60;7.00;;;;;;;;;;5023589;28;20124;-81
2023/01/18 10:55:08;;;;;;;;;;;;;;;;;;5020806;28;20036;-82
2023/01/18 10:57:36;;;;;;;11.80;6.18;;;;;;;;;;5037807;28;19935;-82
2023/01/18 11:00:11;;;;;;;12.73;7.00;;;;;;;;;;5038266;28;20063;-81
2023/01/18 11:02:37;;;;;;;14.20;6.78;;;;;;;;;;5038696;28;20029;-81
2023/01/18 11:05:11;;;;;;;16.00;7.25;;;;;;;;;;5038625;28;20526;-80
2023/01/18 11:07:37;;;;;;;11.07;5.90;;;;;;;;;;5021085;28;20025;-81
2023/01/18 11:10:08;;;;;;;12.05;6.97;;;;;;;;;;5021440;28;20033;-82
2023/01/18 11:12:42;;;;;;;12.02;7.00;;;;;;;;;;5038296;28;20026;-81
2023/01/18 11:15:13;;;;;;;;;;;;;;;;;;5039535;28;20052;-80
2023/01/18 11:17:42;;;;;;;13.05;6.60;;;;;;;;;;5037509;28;19909;-79
2023/01/18 11:20:15;;;;;;;11.40;6.80;;;;;;;;;;5021285;28;20044;-81
2023/01/18 11:23:00;;;;;;;14.90;7.22;;;;;;;;;;5021656;28;20124;-79
2023/01/18 11:25:33;;;;;;;13.90;7.75;;;;;;;;;;5021313;28;20047;-81
2023/01/18 11:28:06;;;;;;;12.18;7.20;;;;;;;;;;5038438;28;20053;-81
2023/01/18 11:30:32;;;;;;;13.40;7.60;;;;;;;;;;5022120;28;20021;-81
2023/01/18 11:33:00;;;;;;;13.32;7.50;;;;;;;;;;5039463;28;20074;-81
2023/01/18 11:35:33;;;;;;;14.65;7.30;;;;;;;;;;5038311;28;20570;-80
2023/01/18 11:38:00;;;;;;;13.85;7.63;;;;;;;;;;5038646;28;20095;-82
2023/01/18 11:40:28;;;;;;;13.68;7.53;;;;;;;;;;5039293;28;20371;-79
2023/01/18 11:43:14;;;;;;;14.02;7.43;;;;;;;;;;5038676;28;20047;-82
2023/01/18 11:45:48;;;;;;;15.57;7.90;;;;;;;;;;5039784;28;20030;-81
2023/01/18 11:48:25;;;;;;;16.60;8.38;;;;;;;;;;5021103;28;20028;-80
2023/01/18 11:51:07;;;;;;;15.82;7.93;;;;;;;;;;5038876;28;20021;-83
2023/01/18 11:53:56;;;;;;;14.80;8.18;;;;;;;;;;5038333;28;20030;-82
2023/01/18 11:56:31;;;;;;;16.13;8.13;;;;;;;;;;5019757;28;20025;-80
2023/01/18 11:58:56;;;;;;;15.18;8.45;;;;;;;;;;5019996;28;20029;-80
2023/01/18 12:01:49;;;;;;;15.38;8.20;;;;;;;;;;5020464;28;20116;-81
2023/01/18 12:04:42;;;;;;;16.15;7.97;;;;;;;;;;5037866;28;20547;-80
2023/01/18 12:07:36;;;;;;;14.85;8.10;;;;;;;;;;4997242;28;20045;-80
2023/01/18 12:10:06;;;;;;;14.85;8.32;;;;;;;;;;5037641;28;20045;-80
2023/01/18 12:12:59;;;;;;;14.57;7.90;;;;;;;;;;5037377;28;20029;-80
2023/01/18 12:16:02;;;;;;;18.13;8.77;;;;;;;;;;5037434;28;20411;-81
2023/01/18 12:18:38;;;;;;;12.25;7.68;;;;;;;;;;5036614;28;20251;-80
2023/01/18 12:21:11;;;;;;;19.08;9.25;;;;;;;;;;5037073;28;20490;-80
2023/01/18 12:23:55;;;;;;;16.10;8.07;;;;;;;;;;5018839;28;20087;-80
2023/01/18 12:26:31;;;;;;;15.10;8.32;;;;;;;;;;5037745;28;20045;-80
2023/01/18 12:29:19;;;;;;;17.70;8.95;;;;;;;;;;5036813;28;20084;-81
2023/01/18 12:31:53;;;;;;;15.07;7.95;;;;;;;;;;5036030;28;20083;-81
2023/01/18 12:34:24;;;;;;;18.50;8.95;;;;;;;;;;5035398;28;20052;-80
2023/01/18 12:37:00;;;;;;;13.52;8.20;;;;;;;;;;5035138;28;20017;-80
2023/01/18 12:39:32;;;;;;;14.02;8.38;;;;;;;;;;5038106;28;20132;-80
2023/01/18 12:42:04;;;;;;;13.35;8.48;;;;;;;;;;5038871;28;20026;-80
2023/01/18 12:44:45;;;;;;;14.60;9.15;;;;;;;;;;5038733;28;20029;-81
2023/01/18 12:47:24;;;;;;;15.77;8.52;;;;;;;;;;5038643;28;20037;-81
2023/01/18 12:49:56;;;;;;;14.30;8.23;;;;;;;;;;5038989;28;20044;-81
2023/01/18 12:52:23;;;;;;;15.73;8.27;;;;;;;;;;5038599;28;20022;-81
2023/01/18 12:54:54;;;;;;;13.95;8.02;;;;;;;;;;5020776;28;20025;-80
2023/01/18 12:57:22;;;;;;;12.13;7.13;;;;;;;;;;5038049;28;20045;-80
2023/01/18 12:59:58;;;;;;;16.92;8.40;;;;;;;;;;5038058;28;20104;-81
2023/01/18 13:02:32;;;;;;;13.85;7.85;;;;;;;;;;5038236;28;20066;-80
2023/01/18 13:05:14;;;;;;;15.20;7.93;;;;;;;;;;5020161;28;20112;-82
2023/01/18 13:07:44;;;;;;;14.10;7.90;;;;;;;;;;5020825;28;20036;-81
2023/01/18 13:10:20;;;;;;;14.32;7.85;;;;;;;;;;5039244;28;20136;-81
2023/01/18 13:12:48;;;;;;;14.77;8.27;;;;;;;;;;5020514;28;20018;-80
2023/01/18 13:15:40;;;;;;;12.75;7.68;;;;;;;;;;5038023;28;20025;-81
2023/01/18 13:18:18;;;;;;;14.55;8.18;;;;;;;;;;5038370;28;20475;-81
2023/01/18 13:20:57;;;;;;;15.25;8.82;;;;;;;;;;5037683;28;20037;-81
2023/01/18 13:23:36;;;;;;;13.73;8.10;;;;;;;;;;5037930;28;20036;-80
2023/01/18 13:26:24;;;;;;;16.42;9.20;;;;;;;;;;5038841;28;20055;-82
2023/01/18 13:29:15;;;;;;;15.07;8.07;;;;;;;;;;5020573;28;20025;-81
2023/01/18 13:31:40;;;;;;;15.48;8.93;;;;;;;;;;5038323;28;20028;-81
2023/01/18 13:34:30;;;;;;;15.00;8.45;;;;;;;;;;5038294;28;20343;-79
2023/01/18 13:36:57;;;;;;;14.57;8.30;;;;;;;;;;5037768;28;20018;-81
2023/01/18 13:39:24;;;;;;;18.27;9.32;;;;;;;;;;5020323;28;20482;-81
2023/01/18 13:42:08;;;;;;;17.63;8.65;;;;;;;;;;5039103;28;20052;-80
2023/01/18 13:44:39;;;;;;;14.95;8.82;;;;;;;;;;5042689;28;20048;-82
2023/01/18 13:47:42;;;;;;;15.98;9.68;;;;;;;;;;5025040;28;20029;-82
2023/01/18 13:50:26;;;;;;;14.68;7.97;;;;;;;;;;5041323;28;20540;-81
2023/01/18 13:53:13;;;;;;;16.88;8.40;;;;;;;;;;5042722;28;20025;-81
2023/01/18 13:55:46;;;;;;;14.57;8.52;;;;;;;;;;5041394;28;20109;-81
2023/01/18 13:58:29;;;;;;;14.13;7.60;;;;;;;;;;5041324;28;20041;-82
2023/01/18 14:00:57;;;;;;;14.35;8.18;;;;;;;;;;5041227;28;20031;-82
2023/01/18 14:03:26;;;;;;;15.20;7.93;;;;;;;;;;5040975;28;20079;-82
2023/01/18 14:05:55;;;;;;;13.07;7.80;;;;;;;;;;5041816;28;20026;-82
2023/01/18 14:08:26;;;;;;;14.73;8.43;;;;;;;;;;5042057;28;20033;-81
2023/01/18 14:10:54;;;;;;;14.95;8.48;;;;;;;;;;5042131;28;20363;-81
2023/01/18 14:13:45;;;;;;;17.88;8.65;;;;;;;;;;5042288;28;20040;-81
2023/01/18 14:16:24;;;;;;;18.25;8.65;;;;;;;;;;5041746;28;20077;-81
2023/01/18 14:19:01;;;;;;;17.23;8.60;;;;;;;;;;5040590;28;20573;-81
2023/01/18 14:21:39;;;;;;;15.70;9.30;;;;;;;;;;5024187;28;20482;-80
2023/01/18 14:24:13;;;;;;;14.63;8.07;;;;;;;;;;5024744;28;20055;-81
2023/01/18 14:26:41;;;;;;;15.80;8.10;;;;;;;;;;5041747;28;20033;-82
2023/01/18 14:29:14;;;;;;;15.43;8.32;;;;;;;;;;5040413;28;20029;-81
2023/01/18 14:31:45;;;;;;;13.60;7.68;;;;;;;;;;5041492;28;20041;-81
2023/01/18 14:34:29;;;;;;;13.73;7.65;;;;;;;;;;5024501;28;20386;-81
2023/01/18 14:36:55;;;;;;;13.43;7.82;;;;;;;;;;5042615;28;20028;-80
2023/01/18 14:39:21;;;;;;;14.30;7.57;;;;;;;;;;5041545;28;20037;-83
2023/01/18 14:41:51;;;;;;;14.43;7.95;;;;;;;;;;5042146;28;20029;-80
2023/01/18 14:44:39;;;;;;;12.00;7.90;;;;;;;;;;5042174;28;20026;-81
2023/01/18 14:47:13;;;;;;;14.43;8.38;;;;;;;;;;5042492;28;20021;-82
2023/01/18 14:49:41;;;;;;;13.88;8.50;;;;;;;;;;5042616;28;20089;-81
2023/01/18 14:52:17;;;;;;;13.77;8.18;;;;;;;;;;5024267;28;20025;-82
2023/01/18 14:54:50;;;;;;;13.02;7.60;;;;;;;;;;5040932;28;20490;-81
2023/01/18 14:57:16;;;;;;;12.77;7.80;;;;;;;;;;5023211;28;20478;-81
2023/01/18 14:59:50;;;;;;;15.40;7.97;;;;;;;;;;5041629;28;20033;-81
2023/01/18 15:02:17;;;;;;;;;;;;;;;;;;5040327;28;20029;-82
2023/01/18 15:04:44;;;;;;;13.93;7.03;;;;;;;;;;5039640;28;20348;-81
2023/01/18 15:07:16;;;;;;;12.88;7.43;;;;;;;;;;5022478;28;20025;-81
2023/01/18 15:09:43;;;;;;;12.20;6.60;;;;;;;;;;5040507;28;20033;-80
2023/01/18 15:12:16;;;;;;;12.00;6.88;;;;;;;;;;5040210;28;20108;-81
2023/01/18 15:14:44;;;;;;;12.05;7.15;;;;;;;;;;5041608;28;20486;-79
2023/01/18 15:17:20;;;;;;;10.82;5.93;;;;;;;;;;5040985;28;20033;-82
2023/01/18 15:19:48;;;;;;;12.27;6.78;;;;;;;;;;5040882;28;20470;-81
2023/01/18 15:22:15;;;;;;;10.90;5.90;;;;;;;;;;5040155;28;20037;-81
2023/01/18 15:24:43;;;;;;;14.88;7.22;;;;;;;;;;5040137;28;20029;-80
2023/01/18 15:27:14;;;;;;;10.40;6.32;;;;;;;;;;5038841;28;20037;-78
2023/01/18 15:29:39;;;;;;;10.13;6.43;;;;;;;;;;5040818;28;20041;-81